Lucia De Jesus — CUKL3 — position and weather

sailwx.info

Track history (hours):
 
Tides and Currents Weather Stations Pressure Air Temp Water Temp Dewpoint Dewpoint Depression Visibility Wind Speed Wind Dir Waves Ship Positions

Lucia De Jesus

Last reported at 2017-Nov-14 07:08 UTC. Time now 2017-Nov-17 22:53 UTC.
Position N 38°26' W 009°07'.

Length 16 m.

Type: Fishing. MMSI: 263294000.

Date/timePositionNaut miles runAvg speedWind from/ knotsBaromVisibWave heightAir tempDewpointWater temp
2017-Nov-14 07:08N 38°26' W 009°07'0 0.0
2017-Nov-14 07:00N 38°26' W 009°07'0 0.2
2017-Nov-14 06:30N 38°26' W 009°07'6 6.5
2017-Nov-14 05:37N 38°24' W 009°14'1 9.6
2017-Nov-14 05:30N 38°24' W 009°15'5 9.3
2017-Nov-14 05:00N 38°24' W 009°21'4 7.2
2017-Nov-14 04:28N 38°23' W 009°26'2 4.2
2017-Nov-14 04:00N 38°25' W 009°27'3 5.1
2017-Nov-14 03:30N 38°28' W 009°28'1 2.4
2017-Nov-14 03:00N 38°26' W 009°28'0 0.6
2017-Nov-14 02:30N 38°26' W 009°28'0 0.5
2017-Nov-14 02:00N 38°26' W 009°28'0 0.6
2017-Nov-14 01:30N 38°26' W 009°28'0 0.8
2017-Nov-14 01:00N 38°25' W 009°27'0 0.7
2017-Nov-14 00:30N 38°25' W 009°27'0 0.9
2017-Nov-14 00:00N 38°24' W 009°27'0 0.9
2017-Nov-13 23:30N 38°24' W 009°27'0 0.1
2017-Nov-13 22:45N 38°24' W 009°27'0 0.7
2017-Nov-13 22:30N 38°24' W 009°27'3 4.6
2017-Nov-13 21:55N 38°26' W 009°29'  
2017-Nov-11 05:52N 38°26' W 009°07'0 0.3
2017-Nov-11 05:30N 38°26' W 009°07'2 3.1
2017-Nov-11 05:00N 38°25' W 009°08'5 9.4
2017-Nov-11 04:30N 38°24' W 009°14'5 9.6
2017-Nov-11 04:00N 38°24' W 009°20'5 9.4
2017-Nov-11 03:30N 38°23' W 009°26'2 4.9
2017-Nov-11 03:00N 38°26' W 009°27'2 4.2
2017-Nov-11 02:30N 38°28' W 009°28'1 1.3
2017-Nov-11 02:00N 38°27' W 009°27'0 0.4
2017-Nov-11 01:30N 38°27' W 009°27'0 1.0
2017-Nov-11 01:00N 38°27' W 009°27'1 1.0
2017-Nov-11 00:30N 38°26' W 009°27'0 0.7
2017-Nov-11 00:00N 38°26' W 009°27'0 0.6
2017-Nov-10 23:30N 38°25' W 009°27'1 1.1
2017-Nov-10 23:00N 38°25' W 009°27'0 0.3
2017-Nov-10 22:30N 38°25' W 009°27'0 0.2
2017-Nov-10 22:00N 38°25' W 009°27'4 7.7
2017-Nov-10 21:30N 38°23' W 009°31'2 4.0
2017-Nov-10 21:00N 38°24' W 009°33'1 2.5
2017-Nov-10 20:30N 38°25' W 009°32'2 4.6
2017-Nov-10 19:59N 38°26' W 009°30'1 2.2
2017-Nov-10 19:30N 38°27' W 009°29'2 4.7
2017-Nov-10 19:00N 38°25' W 009°31'0 0.7
2017-Nov-10 18:30N 38°25' W 009°31'0 0.4
2017-Nov-10 18:00N 38°25' W 009°31'0 0.4
2017-Nov-10 17:30N 38°25' W 009°31'0 0.6
2017-Nov-10 17:00N 38°24' W 009°32'0 0.7
2017-Nov-10 16:30N 38°24' W 009°32'0 0.7
2017-Nov-10 16:00N 38°24' W 009°33'1 1.0
2017-Nov-10 15:30N 38°24' W 009°33'1 1.1
2017-Nov-10 15:00N 38°24' W 009°34'0 0.8
2017-Nov-10 14:30N 38°24' W 009°34'0 0.7
2017-Nov-10 14:00N 38°24' W 009°35'0 0.3
2017-Nov-10 13:30N 38°24' W 009°35'0 0.5
2017-Nov-10 13:00N 38°24' W 009°35'0 0.4
2017-Nov-10 12:30N 38°24' W 009°35'3 5.8
2017-Nov-10 12:00N 38°25' W 009°31'2 3.2
2017-Nov-10 11:30N 38°26' W 009°30'2 4.4
2017-Nov-10 11:00N 38°26' W 009°27'5 9.1
2017-Nov-10 10:30N 38°25' W 009°21'5 9.2
2017-Nov-10 09:59N 38°24' W 009°15'5 9.5
2017-Nov-10 09:25N 38°25' W 009°08'2 4.3
2017-Nov-10 09:00N 38°26' W 009°07'  
2017-Nov-07 07:00N 38°26' W 009°07'0 0.3
2017-Nov-07 06:30N 38°26' W 009°06'6 8.7
2017-Nov-07 05:52N 38°24' W 009°13'3 9.2
2017-Nov-07 05:30N 38°24' W 009°17'5 9.3
2017-Nov-07 05:00N 38°24' W 009°23'3 6.0
2017-Nov-07 04:30N 38°25' W 009°27'3 5.3
2017-Nov-07 04:00N 38°28' W 009°28'1 2.7
2017-Nov-07 03:28N 38°26' W 009°27'0 0.4
2017-Nov-07 03:00N 38°26' W 009°27'0 0.4
2017-Nov-07 02:30N 38°26' W 009°27'1 1.2
2017-Nov-07 02:00N 38°25' W 009°27'1 1.1
2017-Nov-07 01:30N 38°25' W 009°27'0 0.8
2017-Nov-07 00:59N 38°24' W 009°27'0 0.3
2017-Nov-07 00:30N 38°24' W 009°27'1 1.1
2017-Nov-06 23:59N 38°24' W 009°27'1 1.1
2017-Nov-06 23:29N 38°23' W 009°27'0 0.6
2017-Nov-06 22:59N 38°23' W 009°27'0 0.9
2017-Nov-06 22:30N 38°23' W 009°27'3 6.8
2017-Nov-06 22:00N 38°26' W 009°29'2 4.8
2017-Nov-06 21:30N 38°25' W 009°32'2 4.9
2017-Nov-06 21:00N 38°24' W 009°35'0 0.8
2017-Nov-06 20:30N 38°24' W 009°35'  
2017-Nov-04 08:10N 38°26' W 009°07'0 1.0
2017-Nov-04 08:00N 38°26' W 009°07'  
Track history (hours):
 
Tides and Currents Weather Stations Pressure Air Temp Water Temp Dewpoint Dewpoint Depression Visibility Wind Speed Wind Dir Waves Ship Positions

Lucia De Jesus

Last reported at 2017-Nov-14 07:08 UTC. Time now 2017-Nov-17 22:53 UTC.
Position N 38°26' W 009°07'.

Length 16 m.

Type: Fishing. MMSI: 263294000.

Date/timePositionNaut miles runAvg speedWind from/ knotsBaromVisibWave heightAir tempDewpointWater temp
2017-Nov-14 07:08N 38°26' W 009°07'0 0.0
2017-Nov-14 07:00N 38°26' W 009°07'0 0.2
2017-Nov-14 06:30N 38°26' W 009°07'6 6.5
2017-Nov-14 05:37N 38°24' W 009°14'1 9.6
2017-Nov-14 05:30N 38°24' W 009°15'5 9.3
2017-Nov-14 05:00N 38°24' W 009°21'4 7.2
2017-Nov-14 04:28N 38°23' W 009°26'2 4.2
2017-Nov-14 04:00N 38°25' W 009°27'3 5.1
2017-Nov-14 03:30N 38°28' W 009°28'1 2.4
2017-Nov-14 03:00N 38°26' W 009°28'0 0.6
2017-Nov-14 02:30N 38°26' W 009°28'0 0.5
2017-Nov-14 02:00N 38°26' W 009°28'0 0.6
2017-Nov-14 01:30N 38°26' W 009°28'0 0.8
2017-Nov-14 01:00N 38°25' W 009°27'0 0.7
2017-Nov-14 00:30N 38°25' W 009°27'0 0.9
2017-Nov-14 00:00N 38°24' W 009°27'0 0.9
2017-Nov-13 23:30N 38°24' W 009°27'0 0.1
2017-Nov-13 22:45N 38°24' W 009°27'0 0.7
2017-Nov-13 22:30N 38°24' W 009°27'3 4.6
2017-Nov-13 21:55N 38°26' W 009°29'  
2017-Nov-11 05:52N 38°26' W 009°07'0 0.3
2017-Nov-11 05:30N 38°26' W 009°07'2 3.1
2017-Nov-11 05:00N 38°25' W 009°08'5 9.4
2017-Nov-11 04:30N 38°24' W 009°14'5 9.6
2017-Nov-11 04:00N 38°24' W 009°20'5 9.4
2017-Nov-11 03:30N 38°23' W 009°26'2 4.9
2017-Nov-11 03:00N 38°26' W 009°27'2 4.2
2017-Nov-11 02:30N 38°28' W 009°28'1 1.3
2017-Nov-11 02:00N 38°27' W 009°27'0 0.4
2017-Nov-11 01:30N 38°27' W 009°27'0 1.0
2017-Nov-11 01:00N 38°27' W 009°27'1 1.0
2017-Nov-11 00:30N 38°26' W 009°27'0 0.7
2017-Nov-11 00:00N 38°26' W 009°27'0 0.6
2017-Nov-10 23:30N 38°25' W 009°27'1 1.1
2017-Nov-10 23:00N 38°25' W 009°27'0 0.3
2017-Nov-10 22:30N 38°25' W 009°27'0 0.2
2017-Nov-10 22:00N 38°25' W 009°27'4 7.7
2017-Nov-10 21:30N 38°23' W 009°31'2 4.0
2017-Nov-10 21:00N 38°24' W 009°33'1 2.5
2017-Nov-10 20:30N 38°25' W 009°32'2 4.6
2017-Nov-10 19:59N 38°26' W 009°30'1 2.2
2017-Nov-10 19:30N 38°27' W 009°29'2 4.7
2017-Nov-10 19:00N 38°25' W 009°31'0 0.7
2017-Nov-10 18:30N 38°25' W 009°31'0 0.4
2017-Nov-10 18:00N 38°25' W 009°31'0 0.4
2017-Nov-10 17:30N 38°25' W 009°31'0 0.6
2017-Nov-10 17:00N 38°24' W 009°32'0 0.7
2017-Nov-10 16:30N 38°24' W 009°32'0 0.7
2017-Nov-10 16:00N 38°24' W 009°33'1 1.0
2017-Nov-10 15:30N 38°24' W 009°33'1 1.1
2017-Nov-10 15:00N 38°24' W 009°34'0 0.8
2017-Nov-10 14:30N 38°24' W 009°34'0 0.7
2017-Nov-10 14:00N 38°24' W 009°35'0 0.3
2017-Nov-10 13:30N 38°24' W 009°35'0 0.5
2017-Nov-10 13:00N 38°24' W 009°35'0 0.4
2017-Nov-10 12:30N 38°24' W 009°35'3 5.8
2017-Nov-10 12:00N 38°25' W 009°31'2 3.2
2017-Nov-10 11:30N 38°26' W 009°30'2 4.4
2017-Nov-10 11:00N 38°26' W 009°27'5 9.1
2017-Nov-10 10:30N 38°25' W 009°21'5 9.2
2017-Nov-10 09:59N 38°24' W 009°15'5 9.5
2017-Nov-10 09:25N 38°25' W 009°08'2 4.3
2017-Nov-10 09:00N 38°26' W 009°07'  
2017-Nov-07 07:00N 38°26' W 009°07'0 0.3
2017-Nov-07 06:30N 38°26' W 009°06'6 8.7
2017-Nov-07 05:52N 38°24' W 009°13'3 9.2
2017-Nov-07 05:30N 38°24' W 009°17'5 9.3
2017-Nov-07 05:00N 38°24' W 009°23'3 6.0
2017-Nov-07 04:30N 38°25' W 009°27'3 5.3
2017-Nov-07 04:00N 38°28' W 009°28'1 2.7
2017-Nov-07 03:28N 38°26' W 009°27'0 0.4
2017-Nov-07 03:00N 38°26' W 009°27'0 0.4
2017-Nov-07 02:30N 38°26' W 009°27'1 1.2
2017-Nov-07 02:00N 38°25' W 009°27'1 1.1
2017-Nov-07 01:30N 38°25' W 009°27'0 0.8
2017-Nov-07 00:59N 38°24' W 009°27'0 0.3
2017-Nov-07 00:30N 38°24' W 009°27'1 1.1
2017-Nov-06 23:59N 38°24' W 009°27'1 1.1
2017-Nov-06 23:29N 38°23' W 009°27'0 0.6
2017-Nov-06 22:59N 38°23' W 009°27'0 0.9
2017-Nov-06 22:30N 38°23' W 009°27'3 6.8
2017-Nov-06 22:00N 38°26' W 009°29'2 4.8
2017-Nov-06 21:30N 38°25' W 009°32'2 4.9
2017-Nov-06 21:00N 38°24' W 009°35'0 0.8
2017-Nov-06 20:30N 38°24' W 009°35'  
2017-Nov-04 08:10N 38°26' W 009°07'0 1.0
2017-Nov-04 08:00N 38°26' W 009°07'  

Dump ship's entire track history